Pagrindinis puslapis
METAR-TAF:

METAR-TAF

Oro uostai :

Kristianstadas, Švedija

platuma: 55-55N, ilguma: 014-05E, Aukštis: 23 m

Dabartinis oras

Ataskaita buvo paskelbta 14 minutes, ne 07:20 UTC
Vėjas 6 kt iš Šiaurės Rytų
Temperatūra 12°C
Drėgmė 94%
Slėgis 1012 hPa
Matomumas 10 km arba daugiau
Mažai debesys ne aukštis 800 ft
Su prošvaistėmis ne aukštis 2500 ft

METAR: ESMK 010720Z 04006KT 9999 FEW008 BKN025 12/11 Q1012

Laikas: 09:34 (07:34 UTC)

Prognozė

Ataskaita buvo paskelbta 1 valandą ir 3 minutes, ne 06:31 UTC
Prognozė galioja nuo 01 metu 07 UTC su 01 metu 15 UTC
Vėjas 8 kt iš Šiaurės/Šiaurės Rytų
Matomumas 10 km arba daugiau
Su prošvaistėmis ne aukštis 2000 ft
Laikinai
nuo 01 metu 07 UTC su 01 metu 10 UTC
Su prošvaistėmis ne aukštis 1000 ft
Tapsmas
nuo 01 metu 11 UTC su 01 metu 13 UTC
Vėjas 15 kt iš Rytų

TAF: ESMK 010631Z 0107/0115 03008KT 9999 BKN020 TEMPO 0107/0110 BKN010 BECMG 0111/0113 09015KT

Orai ataskaitas ir orų prognozės (METAR, TAF).

turimą stotys yra geltonos ir raudonos taškus žemėlapyje.

Perkelti pele per norėdami pamatyti stoties vardą.

Tada spustelėkite, norėdami matyti oro stebėjimo ir prognozės.

Norėdami pakeisti žemėlapį: spustelėkite ant žalios mygtukų su juodo kryžiaus žemyn,; žalią mygtuką su brūkšneliu, jei norite nutolinti; arba žalių rodyklių gretimoms žemėlapius.


METAR-TAF: